sensor_id;sensor_type;location;lat;lon;timestamp;P1;durP1;ratioP1;P2;durP2;ratioP2
11004;SDS011;5555;59.622;16.556;2023-03-03T00:01:04;2.07;;;0.60;;
11004;SDS011;5555;59.622;16.556;2023-03-03T00:03:30;5.00;;;1.10;;
11004;SDS011;5555;59.622;16.556;2023-03-03T00:05:56;2.57;;;0.77;;
11004;SDS011;5555;59.622;16.556;2023-03-03T00:08:23;3.27;;;0.97;;
11004;SDS011;5555;59.622;16.556;2023-03-03T00:10:48;4.00;;;0.90;;
11004;SDS011;5555;59.622;16.556;2023-03-03T00:13:16;3.57;;;0.70;;
11004;SDS011;5555;59.622;16.556;2023-03-03T00:15:46;5.27;;;1.30;;
11004;SDS011;5555;59.622;16.556;2023-03-03T00:18:29;2.00;;;0.80;;
11004;SDS011;5555;59.622;16.556;2023-03-03T00:20:59;3.90;;;0.97;;
11004;SDS011;5555;59.622;16.556;2023-03-03T00:23:30;2.27;;;0.80;;
11004;SDS011;5555;59.622;16.556;2023-03-03T00:25:59;1.53;;;0.90;;
11004;SDS011;5555;59.622;16.556;2023-03-03T00:28:27;3.27;;;1.20;;
11004;SDS011;5555;59.622;16.556;2023-03-03T00:31:10;4.27;;;1.03;;
11004;SDS011;5555;59.622;16.556;2023-03-03T00:33:51;5.20;;;1.00;;
11004;SDS011;5555;59.622;16.556;2023-03-03T00:36:37;2.93;;;0.93;;
11004;SDS011;5555;59.622;16.556;2023-03-03T00:39:16;4.10;;;0.87;;
11004;SDS011;5555;59.622;16.556;2023-03-03T00:41:56;3.63;;;1.00;;
11004;SDS011;5555;59.622;16.556;2023-03-03T00:47:00;2.53;;;0.80;;
11004;SDS011;5555;59.622;16.556;2023-03-03T00:49:37;5.00;;;1.10;;
11004;SDS011;5555;59.622;16.556;2023-03-03T00:52:10;4.67;;;0.87;;
11004;SDS011;5555;59.622;16.556;2023-03-03T00:54:43;1.17;;;0.60;;
11004;SDS011;5555;59.622;16.556;2023-03-03T00:57:10;1.90;;;0.80;;
11004;SDS011;5555;59.622;16.556;2023-03-03T00:59:39;2.50;;;0.80;;
11004;SDS011;5555;59.622;16.556;2023-03-03T01:02:05;2.37;;;1.00;;
11004;SDS011;5555;59.622;16.556;2023-03-03T01:04:31;1.93;;;0.83;;
11004;SDS011;5555;59.622;16.556;2023-03-03T01:06:56;3.57;;;0.90;;
11004;SDS011;5555;59.622;16.556;2023-03-03T01:09:22;3.13;;;1.03;;
11004;SDS011;5555;59.622;16.556;2023-03-03T01:11:48;2.50;;;0.80;;
11004;SDS011;5555;59.622;16.556;2023-03-03T01:14:14;4.60;;;0.73;;
11004;SDS011;5555;59.622;16.556;2023-03-03T01:16:40;2.43;;;0.80;;
11004;SDS011;5555;59.622;16.556;2023-03-03T01:19:06;2.50;;;0.77;;
11004;SDS011;5555;59.622;16.556;2023-03-03T01:21:32;3.63;;;1.00;;
11004;SDS011;5555;59.622;16.556;2023-03-03T01:23:58;4.07;;;0.87;;
11004;SDS011;5555;59.622;16.556;2023-03-03T01:26:24;3.07;;;0.83;;
11004;SDS011;5555;59.622;16.556;2023-03-03T01:28:49;4.07;;;1.00;;
11004;SDS011;5555;59.622;16.556;2023-03-03T01:31:15;4.97;;;0.87;;
11004;SDS011;5555;59.622;16.556;2023-03-03T01:33:41;3.27;;;1.10;;
11004;SDS011;5555;59.622;16.556;2023-03-03T01:36:06;4.57;;;1.20;;
11004;SDS011;5555;59.622;16.556;2023-03-03T01:38:36;2.73;;;1.03;;
11004;SDS011;5555;59.622;16.556;2023-03-03T01:41:02;3.73;;;0.90;;
11004;SDS011;5555;59.622;16.556;2023-03-03T01:43:28;3.77;;;1.03;;
11004;SDS011;5555;59.622;16.556;2023-03-03T01:48:39;3.23;;;1.20;;
11004;SDS011;5555;59.622;16.556;2023-03-03T01:51:17;2.37;;;0.90;;
11004;SDS011;5555;59.622;16.556;2023-03-03T01:53:49;5.73;;;0.80;;
11004;SDS011;5555;59.622;16.556;2023-03-03T01:56:17;2.53;;;0.90;;
11004;SDS011;5555;59.622;16.556;2023-03-03T01:58:53;2.47;;;0.93;;
11004;SDS011;5555;59.622;16.556;2023-03-03T02:01:23;3.77;;;1.00;;
11004;SDS011;5555;59.622;16.556;2023-03-03T02:03:51;6.17;;;1.23;;
11004;SDS011;5555;59.622;16.556;2023-03-03T02:06:18;3.40;;;1.20;;
11004;SDS011;5555;59.622;16.556;2023-03-03T02:11:31;3.60;;;0.97;;
11004;SDS011;5555;59.622;16.556;2023-03-03T02:14:00;4.13;;;1.33;;
11004;SDS011;5555;59.622;16.556;2023-03-03T02:16:26;4.67;;;1.20;;
11004;SDS011;5555;59.622;16.556;2023-03-03T02:18:52;4.50;;;1.00;;
11004;SDS011;5555;59.622;16.556;2023-03-03T02:21:18;3.27;;;0.97;;
11004;SDS011;5555;59.622;16.556;2023-03-03T02:26:29;4.97;;;1.10;;
11004;SDS011;5555;59.622;16.556;2023-03-03T02:28:57;6.53;;;1.20;;
11004;SDS011;5555;59.622;16.556;2023-03-03T02:31:24;3.57;;;0.90;;
11004;SDS011;5555;59.622;16.556;2023-03-03T02:33:52;3.77;;;0.97;;
11004;SDS011;5555;59.622;16.556;2023-03-03T02:36:23;2.23;;;1.07;;
11004;SDS011;5555;59.622;16.556;2023-03-03T02:38:52;4.17;;;0.97;;
11004;SDS011;5555;59.622;16.556;2023-03-03T02:41:59;1.67;;;0.93;;
11004;SDS011;5555;59.622;16.556;2023-03-03T02:44:44;3.90;;;1.20;;
11004;SDS011;5555;59.622;16.556;2023-03-03T02:47:10;3.93;;;1.43;;
11004;SDS011;5555;59.622;16.556;2023-03-03T02:49:35;3.87;;;1.30;;
11004;SDS011;5555;59.622;16.556;2023-03-03T02:52:03;6.73;;;1.40;;
11004;SDS011;5555;59.622;16.556;2023-03-03T02:54:31;2.47;;;1.03;;
11004;SDS011;5555;59.622;16.556;2023-03-03T02:56:57;5.40;;;1.73;;
11004;SDS011;5555;59.622;16.556;2023-03-03T02:59:23;4.27;;;1.00;;
11004;SDS011;5555;59.622;16.556;2023-03-03T03:01:49;5.47;;;1.40;;
11004;SDS011;5555;59.622;16.556;2023-03-03T03:04:16;1.53;;;1.00;;
11004;SDS011;5555;59.622;16.556;2023-03-03T03:06:44;2.30;;;1.20;;
11004;SDS011;5555;59.622;16.556;2023-03-03T03:09:10;4.27;;;1.20;;
11004;SDS011;5555;59.622;16.556;2023-03-03T03:11:37;4.70;;;0.90;;
11004;SDS011;5555;59.622;16.556;2023-03-03T03:14:04;5.23;;;1.10;;
11004;SDS011;5555;59.622;16.556;2023-03-03T03:16:31;5.33;;;1.63;;
11004;SDS011;5555;59.622;16.556;2023-03-03T03:18:57;5.77;;;1.47;;
11004;SDS011;5555;59.622;16.556;2023-03-03T03:21:23;3.70;;;1.10;;
11004;SDS011;5555;59.622;16.556;2023-03-03T03:23:49;5.10;;;1.00;;
11004;SDS011;5555;59.622;16.556;2023-03-03T03:26:15;3.83;;;1.20;;
11004;SDS011;5555;59.622;16.556;2023-03-03T03:28:40;5.00;;;1.30;;
11004;SDS011;5555;59.622;16.556;2023-03-03T03:31:07;4.67;;;1.07;;
11004;SDS011;5555;59.622;16.556;2023-03-03T03:33:33;6.23;;;1.43;;
11004;SDS011;5555;59.622;16.556;2023-03-03T03:36:00;3.13;;;1.13;;
11004;SDS011;5555;59.622;16.556;2023-03-03T03:38:27;3.87;;;1.33;;
11004;SDS011;5555;59.622;16.556;2023-03-03T03:40:54;5.77;;;1.67;;
11004;SDS011;5555;59.622;16.556;2023-03-03T03:43:20;4.60;;;1.17;;
11004;SDS011;5555;59.622;16.556;2023-03-03T03:45:46;4.57;;;1.63;;
11004;SDS011;5555;59.622;16.556;2023-03-03T03:48:12;8.07;;;1.70;;
11004;SDS011;5555;59.622;16.556;2023-03-03T03:50:37;6.63;;;1.47;;
11004;SDS011;5555;59.622;16.556;2023-03-03T03:53:04;4.63;;;1.10;;
11004;SDS011;5555;59.622;16.556;2023-03-03T03:55:30;5.70;;;1.40;;
11004;SDS011;5555;59.622;16.556;2023-03-03T03:57:56;6.17;;;0.93;;
11004;SDS011;5555;59.622;16.556;2023-03-03T04:00:22;4.97;;;1.17;;
11004;SDS011;5555;59.622;16.556;2023-03-03T04:02:48;7.50;;;1.63;;
11004;SDS011;5555;59.622;16.556;2023-03-03T04:05:14;4.80;;;0.90;;
11004;SDS011;5555;59.622;16.556;2023-03-03T04:07:41;6.90;;;1.63;;
11004;SDS011;5555;59.622;16.556;2023-03-03T04:10:07;5.80;;;1.20;;
11004;SDS011;5555;59.622;16.556;2023-03-03T04:12:33;5.20;;;1.10;;
11004;SDS011;5555;59.622;16.556;2023-03-03T04:15:09;6.53;;;1.67;;
11004;SDS011;5555;59.622;16.556;2023-03-03T04:17:37;5.97;;;1.30;;
11004;SDS011;5555;59.622;16.556;2023-03-03T04:20:03;4.03;;;1.40;;
11004;SDS011;5555;59.622;16.556;2023-03-03T04:22:30;8.30;;;1.60;;
11004;SDS011;5555;59.622;16.556;2023-03-03T04:24:58;3.73;;;1.33;;
11004;SDS011;5555;59.622;16.556;2023-03-03T04:27:24;6.23;;;1.53;;
11004;SDS011;5555;59.622;16.556;2023-03-03T04:29:50;5.50;;;2.00;;
11004;SDS011;5555;59.622;16.556;2023-03-03T04:32:15;7.83;;;1.73;;
11004;SDS011;5555;59.622;16.556;2023-03-03T04:34:42;4.50;;;1.20;;
11004;SDS011;5555;59.622;16.556;2023-03-03T04:37:08;7.10;;;1.80;;
11004;SDS011;5555;59.622;16.556;2023-03-03T04:39:34;4.50;;;1.30;;
11004;SDS011;5555;59.622;16.556;2023-03-03T04:41:59;8.67;;;1.73;;
11004;SDS011;5555;59.622;16.556;2023-03-03T04:44:25;6.53;;;1.27;;
11004;SDS011;5555;59.622;16.556;2023-03-03T04:46:51;6.30;;;1.53;;
11004;SDS011;5555;59.622;16.556;2023-03-03T04:49:16;6.50;;;1.37;;
11004;SDS011;5555;59.622;16.556;2023-03-03T04:51:42;7.43;;;1.63;;
11004;SDS011;5555;59.622;16.556;2023-03-03T04:54:07;5.57;;;1.60;;
11004;SDS011;5555;59.622;16.556;2023-03-03T04:56:33;7.67;;;1.67;;
11004;SDS011;5555;59.622;16.556;2023-03-03T04:58:59;10.20;;;1.70;;
11004;SDS011;5555;59.622;16.556;2023-03-03T05:01:24;8.07;;;1.70;;
11004;SDS011;5555;59.622;16.556;2023-03-03T05:03:50;10.00;;;1.70;;
11004;SDS011;5555;59.622;16.556;2023-03-03T05:06:16;4.77;;;1.50;;
11004;SDS011;5555;59.622;16.556;2023-03-03T05:08:43;4.67;;;1.30;;
11004;SDS011;5555;59.622;16.556;2023-03-03T05:11:09;12.00;;;1.70;;
11004;SDS011;5555;59.622;16.556;2023-03-03T05:13:35;5.33;;;1.47;;
11004;SDS011;5555;59.622;16.556;2023-03-03T05:16:01;7.33;;;1.80;;
11004;SDS011;5555;59.622;16.556;2023-03-03T05:18:27;5.40;;;1.60;;
11004;SDS011;5555;59.622;16.556;2023-03-03T05:20:53;5.07;;;1.50;;
11004;SDS011;5555;59.622;16.556;2023-03-03T05:23:19;7.97;;;1.60;;
11004;SDS011;5555;59.622;16.556;2023-03-03T05:25:48;10.50;;;2.07;;
11004;SDS011;5555;59.622;16.556;2023-03-03T05:28:14;6.77;;;1.67;;
11004;SDS011;5555;59.622;16.556;2023-03-03T05:30:40;8.67;;;2.00;;
11004;SDS011;5555;59.622;16.556;2023-03-03T05:33:06;6.93;;;1.77;;
11004;SDS011;5555;59.622;16.556;2023-03-03T05:35:32;11.67;;;1.53;;
11004;SDS011;5555;59.622;16.556;2023-03-03T05:37:58;6.80;;;2.13;;
11004;SDS011;5555;59.622;16.556;2023-03-03T05:40:24;5.77;;;1.63;;
11004;SDS011;5555;59.622;16.556;2023-03-03T05:42:51;9.33;;;1.83;;
11004;SDS011;5555;59.622;16.556;2023-03-03T05:45:16;7.60;;;1.60;;
11004;SDS011;5555;59.622;16.556;2023-03-03T05:47:45;14.43;;;2.23;;
11004;SDS011;5555;59.622;16.556;2023-03-03T05:50:11;7.63;;;1.83;;
11004;SDS011;5555;59.622;16.556;2023-03-03T05:52:37;13.17;;;2.10;;
11004;SDS011;5555;59.622;16.556;2023-03-03T05:55:03;10.33;;;1.70;;
11004;SDS011;5555;59.622;16.556;2023-03-03T05:57:28;12.47;;;2.13;;
11004;SDS011;5555;59.622;16.556;2023-03-03T05:59:54;10.03;;;1.80;;
11004;SDS011;5555;59.622;16.556;2023-03-03T06:02:20;13.00;;;2.53;;
11004;SDS011;5555;59.622;16.556;2023-03-03T06:04:45;8.30;;;2.23;;
11004;SDS011;5555;59.622;16.556;2023-03-03T06:07:11;8.93;;;2.13;;
11004;SDS011;5555;59.622;16.556;2023-03-03T06:09:37;8.57;;;1.87;;
11004;SDS011;5555;59.622;16.556;2023-03-03T06:12:02;7.50;;;1.93;;
11004;SDS011;5555;59.622;16.556;2023-03-03T06:14:28;9.70;;;2.40;;
11004;SDS011;5555;59.622;16.556;2023-03-03T06:16:54;8.73;;;2.00;;
11004;SDS011;5555;59.622;16.556;2023-03-03T06:19:21;9.10;;;2.37;;
11004;SDS011;5555;59.622;16.556;2023-03-03T06:21:47;13.57;;;2.73;;
11004;SDS011;5555;59.622;16.556;2023-03-03T06:24:13;11.67;;;2.17;;
11004;SDS011;5555;59.622;16.556;2023-03-03T06:26:39;12.40;;;2.03;;
11004;SDS011;5555;59.622;16.556;2023-03-03T06:29:04;8.43;;;2.33;;
11004;SDS011;5555;59.622;16.556;2023-03-03T06:31:30;8.27;;;2.00;;
11004;SDS011;5555;59.622;16.556;2023-03-03T06:33:55;13.53;;;2.50;;
11004;SDS011;5555;59.622;16.556;2023-03-03T06:36:21;8.40;;;2.37;;
11004;SDS011;5555;59.622;16.556;2023-03-03T06:38:47;10.67;;;2.63;;
11004;SDS011;5555;59.622;16.556;2023-03-03T06:41:13;12.57;;;3.20;;
11004;SDS011;5555;59.622;16.556;2023-03-03T06:43:39;12.90;;;2.67;;
11004;SDS011;5555;59.622;16.556;2023-03-03T06:46:04;11.13;;;2.43;;
11004;SDS011;5555;59.622;16.556;2023-03-03T06:48:30;12.47;;;2.80;;
11004;SDS011;5555;59.622;16.556;2023-03-03T06:51:00;10.17;;;2.30;;
11004;SDS011;5555;59.622;16.556;2023-03-03T06:53:27;6.00;;;1.83;;
11004;SDS011;5555;59.622;16.556;2023-03-03T06:55:56;13.37;;;2.67;;
11004;SDS011;5555;59.622;16.556;2023-03-03T06:58:22;11.17;;;3.00;;
11004;SDS011;5555;59.622;16.556;2023-03-03T07:00:58;9.63;;;2.03;;
11004;SDS011;5555;59.622;16.556;2023-03-03T07:03:26;15.33;;;2.70;;
11004;SDS011;5555;59.622;16.556;2023-03-03T07:05:57;12.40;;;2.90;;
11004;SDS011;5555;59.622;16.556;2023-03-03T07:08:24;17.27;;;3.10;;
11004;SDS011;5555;59.622;16.556;2023-03-03T07:10:53;13.40;;;2.60;;
11004;SDS011;5555;59.622;16.556;2023-03-03T07:15:52;13.87;;;3.27;;
11004;SDS011;5555;59.622;16.556;2023-03-03T07:18:24;17.97;;;3.20;;
11004;SDS011;5555;59.622;16.556;2023-03-03T07:21:21;8.23;;;2.57;;
11004;SDS011;5555;59.622;16.556;2023-03-03T07:23:50;13.87;;;3.00;;
11004;SDS011;5555;59.622;16.556;2023-03-03T07:26:18;13.50;;;2.60;;
11004;SDS011;5555;59.622;16.556;2023-03-03T07:29:00;9.80;;;2.70;;
11004;SDS011;5555;59.622;16.556;2023-03-03T07:31:44;9.93;;;2.50;;
11004;SDS011;5555;59.622;16.556;2023-03-03T07:34:22;14.20;;;2.93;;
11004;SDS011;5555;59.622;16.556;2023-03-03T07:36:49;13.27;;;3.97;;
11004;SDS011;5555;59.622;16.556;2023-03-03T07:39:24;12.10;;;2.73;;
11004;SDS011;5555;59.622;16.556;2023-03-03T07:44:52;10.87;;;2.90;;
11004;SDS011;5555;59.622;16.556;2023-03-03T07:47:26;12.00;;;2.73;;
11004;SDS011;5555;59.622;16.556;2023-03-03T07:50:12;11.27;;;2.73;;
11004;SDS011;5555;59.622;16.556;2023-03-03T07:52:43;13.10;;;3.10;;
11004;SDS011;5555;59.622;16.556;2023-03-03T07:55:36;8.30;;;2.47;;
11004;SDS011;5555;59.622;16.556;2023-03-03T08:03:44;11.03;;;2.63;;
11004;SDS011;5555;59.622;16.556;2023-03-03T08:06:36;14.13;;;3.97;;
11004;SDS011;5555;59.622;16.556;2023-03-03T08:11:36;11.23;;;2.90;;
11004;SDS011;5555;59.622;16.556;2023-03-03T08:14:27;9.80;;;3.53;;
11004;SDS011;5555;59.622;16.556;2023-03-03T08:16:56;14.30;;;4.10;;
11004;SDS011;5555;59.622;16.556;2023-03-03T08:19:22;13.10;;;3.07;;
11004;SDS011;5555;59.622;16.556;2023-03-03T08:21:48;13.30;;;3.73;;
11004;SDS011;5555;59.622;16.556;2023-03-03T08:24:14;11.30;;;2.60;;
11004;SDS011;5555;59.622;16.556;2023-03-03T08:26:40;13.73;;;3.07;;
11004;SDS011;5555;59.622;16.556;2023-03-03T08:29:06;11.00;;;3.27;;
11004;SDS011;5555;59.622;16.556;2023-03-03T08:31:31;12.70;;;2.60;;
11004;SDS011;5555;59.622;16.556;2023-03-03T08:33:57;11.20;;;2.90;;
11004;SDS011;5555;59.622;16.556;2023-03-03T08:36:23;12.87;;;3.23;;
11004;SDS011;5555;59.622;16.556;2023-03-03T08:38:49;12.50;;;2.70;;
11004;SDS011;5555;59.622;16.556;2023-03-03T08:41:15;5.33;;;2.20;;
11004;SDS011;5555;59.622;16.556;2023-03-03T08:43:40;12.50;;;2.70;;
11004;SDS011;5555;59.622;16.556;2023-03-03T08:46:09;11.20;;;3.10;;
11004;SDS011;5555;59.622;16.556;2023-03-03T08:48:36;19.80;;;3.87;;
11004;SDS011;5555;59.622;16.556;2023-03-03T08:51:01;13.03;;;3.57;;
11004;SDS011;5555;59.622;16.556;2023-03-03T08:53:27;12.07;;;4.10;;
11004;SDS011;5555;59.622;16.556;2023-03-03T08:55:53;11.17;;;3.80;;
11004;SDS011;5555;59.622;16.556;2023-03-03T08:58:19;12.87;;;3.33;;
11004;SDS011;5555;59.622;16.556;2023-03-03T09:00:45;13.43;;;3.37;;
11004;SDS011;5555;59.622;16.556;2023-03-03T09:03:11;12.03;;;3.00;;
11004;SDS011;5555;59.622;16.556;2023-03-03T09:05:38;17.10;;;3.73;;
11004;SDS011;5555;59.622;16.556;2023-03-03T09:08:04;17.57;;;4.43;;
11004;SDS011;5555;59.622;16.556;2023-03-03T09:10:31;12.23;;;3.70;;
11004;SDS011;5555;59.622;16.556;2023-03-03T09:13:01;7.03;;;2.70;;
11004;SDS011;5555;59.622;16.556;2023-03-03T09:15:35;11.23;;;2.57;;
11004;SDS011;5555;59.622;16.556;2023-03-03T09:21:23;5.37;;;2.13;;
11004;SDS011;5555;59.622;16.556;2023-03-03T09:23:56;4.90;;;1.90;;
11004;SDS011;5555;59.622;16.556;2023-03-03T09:26:26;7.10;;;1.90;;
11004;SDS011;5555;59.622;16.556;2023-03-03T09:31:41;6.90;;;1.57;;
11004;SDS011;5555;59.622;16.556;2023-03-03T09:34:18;9.57;;;1.90;;
11004;SDS011;5555;59.622;16.556;2023-03-03T09:36:46;9.87;;;1.97;;
11004;SDS011;5555;59.622;16.556;2023-03-03T10:06:37;16.43;;;2.80;;
11004;SDS011;5555;59.622;16.556;2023-03-03T10:11:59;9.57;;;2.00;;
11004;SDS011;5555;59.622;16.556;2023-03-03T10:14:48;9.20;;;1.90;;
11004;SDS011;5555;59.622;16.556;2023-03-03T10:22:37;6.67;;;1.90;;
11004;SDS011;5555;59.622;16.556;2023-03-03T10:42:02;7.47;;;1.93;;
11004;SDS011;5555;59.622;16.556;2023-03-03T10:50:35;10.67;;;3.93;;
11004;SDS011;5555;59.622;16.556;2023-03-03T10:53:34;10.07;;;3.80;;
11004;SDS011;5555;59.622;16.556;2023-03-03T10:56:28;11.20;;;4.17;;
11004;SDS011;5555;59.622;16.556;2023-03-03T11:01:56;9.03;;;3.10;;
11004;SDS011;5555;59.622;16.556;2023-03-03T11:04:24;6.63;;;2.50;;
11004;SDS011;5555;59.622;16.556;2023-03-03T11:21:28;7.90;;;2.10;;
11004;SDS011;5555;59.622;16.556;2023-03-03T11:24:16;7.67;;;1.60;;
11004;SDS011;5555;59.622;16.556;2023-03-03T11:30:23;3.77;;;1.53;;
11004;SDS011;5555;59.622;16.556;2023-03-03T11:38:36;5.77;;;1.60;;
11004;SDS011;5555;59.622;16.556;2023-03-03T11:50:01;6.83;;;2.50;;
11004;SDS011;5555;59.622;16.556;2023-03-03T11:55:40;3.47;;;1.63;;
11004;SDS011;5555;59.622;16.556;2023-03-03T12:00:46;7.07;;;1.73;;
11004;SDS011;5555;59.622;16.556;2023-03-03T12:03:29;6.90;;;2.00;;
11004;SDS011;5555;59.622;16.556;2023-03-03T12:08:34;10.63;;;2.27;;
11004;SDS011;5555;59.622;16.556;2023-03-03T12:11:24;3.97;;;1.43;;
11004;SDS011;5555;59.622;16.556;2023-03-03T12:17:14;6.50;;;1.90;;
11004;SDS011;5555;59.622;16.556;2023-03-03T12:22:15;5.07;;;1.67;;
11004;SDS011;5555;59.622;16.556;2023-03-03T12:25:21;8.60;;;2.50;;
11004;SDS011;5555;59.622;16.556;2023-03-03T12:30:48;7.33;;;2.10;;
11004;SDS011;5555;59.622;16.556;2023-03-03T12:39:03;7.33;;;1.90;;
11004;SDS011;5555;59.622;16.556;2023-03-03T12:44:25;6.30;;;1.90;;
11004;SDS011;5555;59.622;16.556;2023-03-03T12:47:14;9.47;;;2.37;;
11004;SDS011;5555;59.622;16.556;2023-03-03T12:49:48;8.47;;;2.60;;
11004;SDS011;5555;59.622;16.556;2023-03-03T12:52:32;7.83;;;2.50;;
11004;SDS011;5555;59.622;16.556;2023-03-03T13:09:21;9.20;;;2.27;;
11004;SDS011;5555;59.622;16.556;2023-03-03T13:20:02;8.30;;;2.00;;
11004;SDS011;5555;59.622;16.556;2023-03-03T13:22:41;9.83;;;1.50;;
11004;SDS011;5555;59.622;16.556;2023-03-03T13:27:49;4.67;;;1.43;;
11004;SDS011;5555;59.622;16.556;2023-03-03T13:30:25;8.73;;;2.00;;
11004;SDS011;5555;59.622;16.556;2023-03-03T13:32:58;8.33;;;2.17;;
11004;SDS011;5555;59.622;16.556;2023-03-03T13:35:54;4.57;;;1.30;;
11004;SDS011;5555;59.622;16.556;2023-03-03T13:38:25;6.53;;;1.90;;
11004;SDS011;5555;59.622;16.556;2023-03-03T13:41:03;6.20;;;1.07;;
11004;SDS011;5555;59.622;16.556;2023-03-03T13:43:43;5.70;;;1.37;;
11004;SDS011;5555;59.622;16.556;2023-03-03T13:51:20;8.80;;;1.17;;
11004;SDS011;5555;59.622;16.556;2023-03-03T13:53:51;6.37;;;1.47;;
11004;SDS011;5555;59.622;16.556;2023-03-03T14:02:19;5.03;;;0.90;;
11004;SDS011;5555;59.622;16.556;2023-03-03T14:10:35;8.10;;;0.80;;
11004;SDS011;5555;59.622;16.556;2023-03-03T14:13:10;7.20;;;1.50;;
11004;SDS011;5555;59.622;16.556;2023-03-03T14:15:43;4.30;;;1.27;;
11004;SDS011;5555;59.622;16.556;2023-03-03T14:21:10;2.70;;;0.70;;
11004;SDS011;5555;59.622;16.556;2023-03-03T14:24:10;8.47;;;1.37;;
11004;SDS011;5555;59.622;16.556;2023-03-03T14:26:50;6.00;;;1.20;;
11004;SDS011;5555;59.622;16.556;2023-03-03T14:29:20;5.93;;;1.00;;
11004;SDS011;5555;59.622;16.556;2023-03-03T14:31:52;5.37;;;1.70;;
11004;SDS011;5555;59.622;16.556;2023-03-03T14:36:48;12.53;;;1.50;;
11004;SDS011;5555;59.622;16.556;2023-03-03T14:39:29;7.10;;;1.47;;
11004;SDS011;5555;59.622;16.556;2023-03-03T14:41:56;3.13;;;0.90;;
11004;SDS011;5555;59.622;16.556;2023-03-03T14:44:31;10.53;;;1.50;;
11004;SDS011;5555;59.622;16.556;2023-03-03T14:49:31;5.07;;;1.33;;
11004;SDS011;5555;59.622;16.556;2023-03-03T14:52:17;6.77;;;1.20;;
11004;SDS011;5555;59.622;16.556;2023-03-03T14:54:53;7.27;;;0.90;;
11004;SDS011;5555;59.622;16.556;2023-03-03T15:02:42;4.50;;;0.90;;
11004;SDS011;5555;59.622;16.556;2023-03-03T15:05:29;4.17;;;1.23;;
11004;SDS011;5555;59.622;16.556;2023-03-03T15:07:57;6.23;;;1.03;;
11004;SDS011;5555;59.622;16.556;2023-03-03T15:10:33;8.67;;;1.57;;
11004;SDS011;5555;59.622;16.556;2023-03-03T15:16:03;5.87;;;1.53;;
11004;SDS011;5555;59.622;16.556;2023-03-03T15:18:34;9.00;;;1.80;;
11004;SDS011;5555;59.622;16.556;2023-03-03T15:21:30;6.47;;;1.60;;
11004;SDS011;5555;59.622;16.556;2023-03-03T15:26:54;10.33;;;1.83;;
11004;SDS011;5555;59.622;16.556;2023-03-03T15:35:26;7.60;;;1.60;;
11004;SDS011;5555;59.622;16.556;2023-03-03T15:38:02;5.30;;;1.10;;
11004;SDS011;5555;59.622;16.556;2023-03-03T15:40:58;4.77;;;1.23;;
11004;SDS011;5555;59.622;16.556;2023-03-03T15:54:56;4.40;;;0.67;;
11004;SDS011;5555;59.622;16.556;2023-03-03T16:02:55;6.10;;;1.53;;
11004;SDS011;5555;59.622;16.556;2023-03-03T16:11:22;12.30;;;1.93;;
11004;SDS011;5555;59.622;16.556;2023-03-03T16:17:00;3.63;;;0.87;;
11004;SDS011;5555;59.622;16.556;2023-03-03T16:19:58;4.73;;;0.50;;
11004;SDS011;5555;59.622;16.556;2023-03-03T16:26:08;0.73;;;0.37;;
11004;SDS011;5555;59.622;16.556;2023-03-03T16:28:18;1.33;;;0.50;;
11004;SDS011;5555;59.622;16.556;2023-03-03T16:30:53;1.47;;;0.60;;
11004;SDS011;5555;59.622;16.556;2023-03-03T16:41:22;3.30;;;0.40;;
11004;SDS011;5555;59.622;16.556;2023-03-03T16:52:34;1.93;;;0.23;;
11004;SDS011;5555;59.622;16.556;2023-03-03T16:55:13;1.03;;;0.33;;
11004;SDS011;5555;59.622;16.556;2023-03-03T17:03:39;2.47;;;0.30;;
11004;SDS011;5555;59.622;16.556;2023-03-03T17:06:18;1.23;;;0.20;;
11004;SDS011;5555;59.622;16.556;2023-03-03T17:11:49;0.73;;;0.40;;
11004;SDS011;5555;59.622;16.556;2023-03-03T17:22:40;3.53;;;0.60;;
11004;SDS011;5555;59.622;16.556;2023-03-03T17:25:22;3.23;;;0.27;;
11004;SDS011;5555;59.622;16.556;2023-03-03T17:28:28;1.40;;;0.30;;
11004;SDS011;5555;59.622;16.556;2023-03-03T17:36:43;2.20;;;0.30;;
11004;SDS011;5555;59.622;16.556;2023-03-03T17:42:03;0.40;;;0.30;;
11004;SDS011;5555;59.622;16.556;2023-03-03T17:47:46;0.73;;;0.37;;
11004;SDS011;5555;59.622;16.556;2023-03-03T18:04:03;1.37;;;0.40;;
11004;SDS011;5555;59.622;16.556;2023-03-03T18:12:28;1.43;;;0.40;;
11004;SDS011;5555;59.622;16.556;2023-03-03T18:15:17;1.50;;;0.30;;
11004;SDS011;5555;59.622;16.556;2023-03-03T18:18:02;1.07;;;0.30;;
11004;SDS011;5555;59.622;16.556;2023-03-03T18:23:30;1.63;;;0.50;;
11004;SDS011;5555;59.622;16.556;2023-03-03T18:29:12;1.03;;;0.30;;
11004;SDS011;5555;59.622;16.556;2023-03-03T18:34:38;1.93;;;0.40;;
11004;SDS011;5555;59.622;16.556;2023-03-03T18:42:55;2.17;;;0.47;;
11004;SDS011;5555;59.622;16.556;2023-03-03T18:50:38;1.17;;;0.40;;
11004;SDS011;5555;59.622;16.556;2023-03-03T18:53:19;0.80;;;0.50;;
11004;SDS011;5555;59.622;16.556;2023-03-03T18:55:50;0.90;;;0.50;;
11004;SDS011;5555;59.622;16.556;2023-03-03T19:00:48;0.77;;;0.40;;
11004;SDS011;5555;59.622;16.556;2023-03-03T19:03:26;1.90;;;0.63;;
11004;SDS011;5555;59.622;16.556;2023-03-03T19:07:20;2.60;;;0.60;;
11004;SDS011;5555;59.622;16.556;2023-03-03T19:09:20;0.73;;;0.40;;
11004;SDS011;5555;59.622;16.556;2023-03-03T19:12:11;2.40;;;0.60;;
11004;SDS011;5555;59.622;16.556;2023-03-03T19:14:45;1.17;;;0.73;;
11004;SDS011;5555;59.622;16.556;2023-03-03T19:20:01;1.60;;;0.50;;
11004;SDS011;5555;59.622;16.556;2023-03-03T19:22:49;1.50;;;0.50;;
11004;SDS011;5555;59.622;16.556;2023-03-03T19:25:21;1.63;;;0.50;;
11004;SDS011;5555;59.622;16.556;2023-03-03T19:27:53;2.87;;;0.60;;
11004;SDS011;5555;59.622;16.556;2023-03-03T19:30:44;2.03;;;0.50;;
11004;SDS011;5555;59.622;16.556;2023-03-03T19:51:11;3.43;;;0.40;;
11004;SDS011;5555;59.622;16.556;2023-03-03T19:56:35;2.83;;;0.70;;
11004;SDS011;5555;59.622;16.556;2023-03-03T19:59:15;1.40;;;0.50;;
11004;SDS011;5555;59.622;16.556;2023-03-03T20:04:55;1.20;;;0.57;;
11004;SDS011;5555;59.622;16.556;2023-03-03T20:07:43;1.20;;;0.60;;
11004;SDS011;5555;59.622;16.556;2023-03-03T20:24:22;1.13;;;0.60;;
11004;SDS011;5555;59.622;16.556;2023-03-03T20:27:01;1.37;;;0.53;;
11004;SDS011;5555;59.622;16.556;2023-03-03T20:32:17;2.37;;;0.50;;
11004;SDS011;5555;59.622;16.556;2023-03-03T20:34:54;3.17;;;0.57;;
11004;SDS011;5555;59.622;16.556;2023-03-03T20:40:36;1.57;;;0.50;;
11004;SDS011;5555;59.622;16.556;2023-03-03T20:51:28;1.47;;;0.60;;
11004;SDS011;5555;59.622;16.556;2023-03-03T21:07:56;1.77;;;0.60;;
11004;SDS011;5555;59.622;16.556;2023-03-03T21:10:31;1.80;;;0.60;;
11004;SDS011;5555;59.622;16.556;2023-03-03T21:16:11;3.07;;;0.80;;
11004;SDS011;5555;59.622;16.556;2023-03-03T21:21:26;1.53;;;0.43;;
11004;SDS011;5555;59.622;16.556;2023-03-03T21:23:54;1.03;;;0.50;;
11004;SDS011;5555;59.622;16.556;2023-03-03T21:29:23;3.40;;;0.50;;
11004;SDS011;5555;59.622;16.556;2023-03-03T21:31:56;3.20;;;0.50;;
11004;SDS011;5555;59.622;16.556;2023-03-03T21:34:34;1.07;;;0.50;;
11004;SDS011;5555;59.622;16.556;2023-03-03T21:37:09;2.40;;;0.73;;
11004;SDS011;5555;59.622;16.556;2023-03-03T21:42:05;0.70;;;0.50;;
11004;SDS011;5555;59.622;16.556;2023-03-03T21:47:05;1.03;;;0.50;;
11004;SDS011;5555;59.622;16.556;2023-03-03T21:49:33;2.50;;;0.50;;
11004;SDS011;5555;59.622;16.556;2023-03-03T21:51:59;1.17;;;0.60;;
11004;SDS011;5555;59.622;16.556;2023-03-03T21:54:25;2.30;;;0.60;;
11004;SDS011;5555;59.622;16.556;2023-03-03T21:56:51;1.00;;;0.50;;
11004;SDS011;5555;59.622;16.556;2023-03-03T21:59:17;2.00;;;0.40;;
11004;SDS011;5555;59.622;16.556;2023-03-03T22:01:43;3.03;;;0.90;;
11004;SDS011;5555;59.622;16.556;2023-03-03T22:04:09;2.93;;;0.53;;
11004;SDS011;5555;59.622;16.556;2023-03-03T22:06:35;1.53;;;0.43;;